createdAt,value
2022-10-30T00:02:12.888Z,15.81
2022-10-30T00:04:39.407Z,15.78
2022-10-30T00:07:05.809Z,15.78
2022-10-30T00:09:32.230Z,15.76
2022-10-30T00:11:58.673Z,15.76
2022-10-30T00:14:25.068Z,15.75
2022-10-30T00:16:51.460Z,15.74
2022-10-30T00:19:17.908Z,15.74
2022-10-30T00:21:44.313Z,15.73
2022-10-30T00:24:11.187Z,15.74
2022-10-30T00:26:37.589Z,15.73
2022-10-30T00:29:04.106Z,15.73
2022-10-30T00:31:30.519Z,15.73
2022-10-30T00:33:56.998Z,15.71
2022-10-30T00:36:23.660Z,15.69
2022-10-30T00:38:50.076Z,15.68
2022-10-30T00:41:18.336Z,15.68
2022-10-30T00:43:45.147Z,15.66
2022-10-30T00:46:33.491Z,15.66
2022-10-30T00:49:04.407Z,15.65
2022-10-30T00:51:31.482Z,15.64
2022-10-30T00:53:59.827Z,15.65
2022-10-30T00:56:26.782Z,15.65
2022-10-30T00:58:57.323Z,15.64
2022-10-30T01:01:26.202Z,15.64
2022-10-30T01:03:56.045Z,15.63
2022-10-30T01:06:23.089Z,15.64
2022-10-30T01:08:53.746Z,15.63
2022-10-30T01:11:21.746Z,15.62
2022-10-30T01:13:49.582Z,15.61
2022-10-30T01:16:42.869Z,15.62
2022-10-30T01:19:26.417Z,15.61
2022-10-30T01:22:25.333Z,15.61
2022-10-30T01:25:05.649Z,15.61
2022-10-30T01:28:00.032Z,15.62
2022-10-30T01:30:46.167Z,15.61
2022-10-30T01:33:37.355Z,15.59
2022-10-30T01:36:15.796Z,15.59
2022-10-30T01:38:52.844Z,15.58
2022-10-30T01:41:19.295Z,15.58
2022-10-30T01:43:48.628Z,15.56
2022-10-30T01:46:38.257Z,15.53
2022-10-30T01:49:20.924Z,15.53
2022-10-30T01:51:56.804Z,15.52
2022-10-30T01:54:53.410Z,15.49
2022-10-30T01:57:27.465Z,15.49
2022-10-30T01:59:59.593Z,15.47
2022-10-30T02:02:26.460Z,15.46
2022-10-30T02:04:53.084Z,15.45
2022-10-30T02:07:19.569Z,15.44
2022-10-30T02:09:45.974Z,15.41
2022-10-30T02:12:13.868Z,15.40
2022-10-30T02:14:44.015Z,15.40
2022-10-30T02:17:11.630Z,15.40
2022-10-30T02:19:38.212Z,15.39
2022-10-30T02:22:05.181Z,15.38
2022-10-30T02:24:31.932Z,15.39
2022-10-30T02:26:58.836Z,15.37
2022-10-30T02:29:25.265Z,15.36
2022-10-30T02:31:51.672Z,15.35
2022-10-30T02:34:18.096Z,15.35
2022-10-30T02:36:44.506Z,15.33
2022-10-30T02:39:10.941Z,15.33
2022-10-30T02:41:37.608Z,15.34
2022-10-30T02:44:05.215Z,15.35
2022-10-30T02:46:31.629Z,15.36
2022-10-30T02:48:58.038Z,15.37
2022-10-30T02:51:24.433Z,15.36
2022-10-30T02:53:50.917Z,15.35
2022-10-30T02:56:17.537Z,15.34
2022-10-30T02:58:43.979Z,15.33
2022-10-30T03:01:15.509Z,15.32
2022-10-30T03:03:42.692Z,15.30
2022-10-30T03:06:11.309Z,15.28
2022-10-30T03:08:37.916Z,15.27
2022-10-30T03:11:08.495Z,15.25
2022-10-30T03:13:35.969Z,15.22
2022-10-30T03:16:07.509Z,15.21
2022-10-30T03:18:34.396Z,15.20
2022-10-30T03:21:03.289Z,15.18
2022-10-30T03:23:29.918Z,15.15
2022-10-30T03:25:57.775Z,15.13
2022-10-30T03:28:26.035Z,15.13
2022-10-30T03:30:58.583Z,15.11
2022-10-30T03:33:25.093Z,15.10
2022-10-30T03:35:51.665Z,15.08
2022-10-30T03:38:18.101Z,15.08
2022-10-30T03:40:44.502Z,15.07
2022-10-30T03:43:11.124Z,15.03
2022-10-30T03:45:37.579Z,15.00
2022-10-30T03:48:05.664Z,14.99
2022-10-30T03:50:32.704Z,14.96
2022-10-30T03:52:59.151Z,14.95
2022-10-30T03:55:25.751Z,14.91
2022-10-30T03:57:52.272Z,14.87
2022-10-30T04:00:19.266Z,14.85
2022-10-30T04:02:50.122Z,14.82
2022-10-30T04:05:18.790Z,14.80
2022-10-30T04:07:45.303Z,14.77
2022-10-30T04:10:12.625Z,14.73
2022-10-30T04:12:39.148Z,14.69
2022-10-30T04:15:07.297Z,14.66
2022-10-30T04:17:34.054Z,14.63
2022-10-30T04:20:00.461Z,14.62
2022-10-30T04:22:27.711Z,14.61
2022-10-30T04:24:54.122Z,14.57
2022-10-30T04:27:20.539Z,14.54
2022-10-30T04:29:47.343Z,14.50
2022-10-30T04:32:13.819Z,14.47
2022-10-30T04:34:40.251Z,14.46
2022-10-30T04:37:07.073Z,14.42
2022-10-30T04:39:33.495Z,14.40
2022-10-30T04:41:59.938Z,14.39
2022-10-30T04:44:26.336Z,14.40
2022-10-30T04:46:52.752Z,14.37
2022-10-30T04:49:19.163Z,14.38
2022-10-30T04:51:47.339Z,14.40
2022-10-30T04:54:13.755Z,14.41
2022-10-30T04:56:40.208Z,14.41
2022-10-30T04:59:06.611Z,14.42
2022-10-30T05:01:33.117Z,14.41
2022-10-30T05:03:59.698Z,14.42
2022-10-30T05:06:27.457Z,14.42
2022-10-30T05:08:55.709Z,14.43
2022-10-30T05:11:22.323Z,14.44
2022-10-30T05:13:48.789Z,14.44
2022-10-30T05:16:15.209Z,14.43
2022-10-30T05:18:41.632Z,14.42
2022-10-30T05:21:08.081Z,14.42
2022-10-30T05:23:34.502Z,14.41
2022-10-30T05:26:01.257Z,14.41
2022-10-30T05:28:27.715Z,14.40
2022-10-30T05:30:54.530Z,14.41
2022-10-30T05:33:22.555Z,14.40
2022-10-30T05:35:49.854Z,14.39
2022-10-30T05:38:16.285Z,14.38
2022-10-30T05:40:46.035Z,14.39
2022-10-30T05:43:12.515Z,14.39
2022-10-30T05:45:38.930Z,14.39
2022-10-30T05:48:06.861Z,14.38
2022-10-30T05:50:33.793Z,14.38
2022-10-30T05:53:02.235Z,14.39
2022-10-30T05:55:28.954Z,14.38
2022-10-30T05:57:57.396Z,14.38
2022-10-30T06:00:24.638Z,14.37
2022-10-30T06:02:51.290Z,14.37
2022-10-30T06:05:17.776Z,14.36
2022-10-30T06:07:44.184Z,14.35
2022-10-30T06:10:10.595Z,14.35
2022-10-30T06:12:37.013Z,14.34
2022-10-30T06:15:03.768Z,14.32
2022-10-30T06:17:31.193Z,14.31
2022-10-30T06:19:57.616Z,14.30
2022-10-30T06:22:24.017Z,14.27
2022-10-30T06:24:50.430Z,14.26
2022-10-30T06:27:16.812Z,14.26
2022-10-30T06:29:43.236Z,14.26
2022-10-30T06:32:09.668Z,14.25
2022-10-30T06:34:36.323Z,14.24
2022-10-30T06:37:02.815Z,14.23
2022-10-30T06:39:29.303Z,14.22
2022-10-30T06:41:55.706Z,14.20
2022-10-30T06:44:22.119Z,14.21
2022-10-30T06:46:48.532Z,14.20
2022-10-30T06:49:14.963Z,14.22
2022-10-30T06:51:42.041Z,14.24
2022-10-30T06:54:08.472Z,14.24
2022-10-30T06:56:34.931Z,14.26
2022-10-30T06:59:01.339Z,14.30
2022-10-30T07:01:27.826Z,14.33
2022-10-30T07:03:54.343Z,14.35
2022-10-30T07:06:20.791Z,14.37
2022-10-30T07:08:47.279Z,14.39
2022-10-30T07:11:14.550Z,14.42
2022-10-30T07:13:40.953Z,14.45
2022-10-30T07:16:07.458Z,14.47
2022-10-30T07:18:33.900Z,14.48
2022-10-30T07:21:00.333Z,14.51
2022-10-30T07:23:26.804Z,14.51
2022-10-30T07:25:53.204Z,14.54
2022-10-30T07:28:19.727Z,14.57
2022-10-30T07:30:46.168Z,14.58
2022-10-30T07:33:12.581Z,14.62
2022-10-30T07:35:39.034Z,14.67
2022-10-30T07:38:10.237Z,14.73
2022-10-30T07:40:36.636Z,14.78
2022-10-30T07:43:04.231Z,14.86
2022-10-30T07:45:30.880Z,14.90
2022-10-30T07:47:57.921Z,14.96
2022-10-30T07:50:24.776Z,15.03
2022-10-30T07:52:51.184Z,15.09
2022-10-30T07:55:17.613Z,15.16
2022-10-30T07:57:44.031Z,15.23
2022-10-30T08:00:12.747Z,15.29
2022-10-30T08:02:39.465Z,15.35
2022-10-30T08:05:06.701Z,15.42
2022-10-30T08:07:35.051Z,15.49
2022-10-30T08:10:01.495Z,15.54
2022-10-30T08:12:28.053Z,15.60
2022-10-30T08:14:54.537Z,15.66
2022-10-30T08:17:21.635Z,15.73
2022-10-30T08:19:48.108Z,15.81
2022-10-30T08:22:14.598Z,15.90
2022-10-30T08:24:41.228Z,15.95
2022-10-30T08:27:07.950Z,16.05
2022-10-30T08:29:34.872Z,16.10
2022-10-30T08:32:01.395Z,16.18
2022-10-30T08:34:27.992Z,16.26
2022-10-30T08:36:54.465Z,16.34
2022-10-30T08:39:21.119Z,16.44
2022-10-30T08:41:47.503Z,16.59
2022-10-30T08:44:14.513Z,16.66
2022-10-30T08:46:40.914Z,16.69
2022-10-30T08:49:07.340Z,16.75
2022-10-30T08:51:34.873Z,16.87
2022-10-30T08:54:01.670Z,16.96
2022-10-30T08:56:28.125Z,17.01
2022-10-30T08:58:54.574Z,17.13
2022-10-30T09:01:21.091Z,17.17
2022-10-30T09:03:47.848Z,17.23
2022-10-30T09:06:14.268Z,17.32
2022-10-30T09:08:40.765Z,17.38
2022-10-30T09:11:07.176Z,17.44
2022-10-30T09:13:33.627Z,17.57
2022-10-30T09:16:01.501Z,17.61
2022-10-30T09:18:28.225Z,17.67
2022-10-30T09:20:54.739Z,17.77
2022-10-30T09:23:21.291Z,17.83
2022-10-30T09:25:47.723Z,17.85
2022-10-30T09:28:14.161Z,17.97
2022-10-30T09:30:40.757Z,18.04
2022-10-30T09:33:07.209Z,18.12
2022-10-30T09:35:33.665Z,18.20
2022-10-30T09:38:00.414Z,18.22
2022-10-30T09:40:30.090Z,18.34
2022-10-30T09:43:03.004Z,18.38
2022-10-30T09:45:49.276Z,18.46
2022-10-30T09:48:52.530Z,18.54
2022-10-30T09:51:29.944Z,18.61
2022-10-30T09:54:15.327Z,18.64
2022-10-30T09:56:46.458Z,18.76
2022-10-30T09:59:21.765Z,18.80
2022-10-30T10:01:53.451Z,18.91
2022-10-30T10:04:31.779Z,18.92
2022-10-30T10:07:04.208Z,18.98
2022-10-30T10:09:31.839Z,19.10
2022-10-30T10:12:29.664Z,19.10
2022-10-30T10:14:56.858Z,19.17
2022-10-30T10:17:31.800Z,19.28
2022-10-30T10:20:03.307Z,19.27
2022-10-30T10:22:35.458Z,19.34
2022-10-30T10:25:11.806Z,19.40
2022-10-30T10:27:56.323Z,19.43
2022-10-30T10:30:23.906Z,19.60
2022-10-30T10:32:50.214Z,19.61
2022-10-30T10:35:35.047Z,19.65
2022-10-30T10:38:32.391Z,19.70
2022-10-30T10:41:07.940Z,19.81
2022-10-30T10:44:01.340Z,19.79
2022-10-30T10:46:55.856Z,19.85
2022-10-30T10:49:53.114Z,19.94
2022-10-30T10:52:22.899Z,19.95
2022-10-30T10:55:01.117Z,20.01
2022-10-30T10:57:38.430Z,20.05
2022-10-30T11:00:06.417Z,20.11
2022-10-30T11:02:40.127Z,20.19
2022-10-30T11:05:18.846Z,20.28
2022-10-30T11:07:47.976Z,20.47
2022-10-30T11:10:16.962Z,20.43
2022-10-30T11:12:43.534Z,20.39
2022-10-30T11:15:36.729Z,20.47
2022-10-30T11:18:08.741Z,20.57
2022-10-30T11:21:09.230Z,20.58
2022-10-30T11:23:39.996Z,20.67
2022-10-30T11:26:18.531Z,20.74
2022-10-30T11:28:53.944Z,20.73
2022-10-30T11:31:34.894Z,20.73
2022-10-30T11:34:20.510Z,20.83
2022-10-30T11:36:51.665Z,20.80
2022-10-30T11:39:20.720Z,20.83
2022-10-30T11:42:00.558Z,20.86
2022-10-30T11:44:56.346Z,20.84
2022-10-30T11:47:31.729Z,20.93
2022-10-30T11:50:00.196Z,20.94
2022-10-30T11:52:27.162Z,21.02
2022-10-30T11:54:57.152Z,20.99
2022-10-30T11:57:30.305Z,21.06
2022-10-30T12:00:02.091Z,21.11
2022-10-30T12:02:41.345Z,21.12
2022-10-30T12:05:27.712Z,21.16
2022-10-30T12:08:23.756Z,21.20
2022-10-30T12:10:50.060Z,21.22
2022-10-30T12:13:19.020Z,21.17
2022-10-30T12:15:47.541Z,21.18
2022-10-30T12:18:22.980Z,21.23
2022-10-30T12:20:52.804Z,21.25
2022-10-30T12:23:22.144Z,21.28
2022-10-30T12:25:49.530Z,21.31
2022-10-30T12:28:18.518Z,21.33
2022-10-30T12:30:54.368Z,21.37
2022-10-30T12:33:27.996Z,21.38
2022-10-30T12:35:57.303Z,21.39
2022-10-30T12:38:39.004Z,21.40
2022-10-30T12:41:11.452Z,21.43
2022-10-30T12:43:38.850Z,21.47
2022-10-30T12:46:47.265Z,21.40
2022-10-30T12:49:16.679Z,21.44
2022-10-30T12:52:00.928Z,21.48
2022-10-30T12:54:36.255Z,21.49
2022-10-30T12:57:11.127Z,21.47
2022-10-30T12:59:46.755Z,21.52
2022-10-30T13:02:26.253Z,21.54
2022-10-30T13:04:57.790Z,21.54
2022-10-30T13:07:33.963Z,21.52
2022-10-30T13:10:21.875Z,21.52
2022-10-30T13:12:52.419Z,21.53
2022-10-30T13:15:32.861Z,21.57
2022-10-30T13:18:01.250Z,21.57
2022-10-30T13:20:29.306Z,21.55
2022-10-30T13:23:15.570Z,21.54
2022-10-30T13:26:06.921Z,21.54
2022-10-30T13:28:39.214Z,21.55
2022-10-30T13:31:26.079Z,21.55
2022-10-30T13:34:01.347Z,21.48
2022-10-30T13:36:46.754Z,21.53
2022-10-30T13:39:32.383Z,21.54
2022-10-30T13:42:14.828Z,21.54
2022-10-30T13:45:04.487Z,21.53
2022-10-30T13:47:48.140Z,21.51
2022-10-30T13:50:45.019Z,21.52
2022-10-30T13:53:16.846Z,21.54
2022-10-30T13:55:43.957Z,21.52
2022-10-30T13:58:41.071Z,21.51
2022-10-30T14:01:17.873Z,21.49
2022-10-30T14:04:01.945Z,21.51
2022-10-30T14:06:39.291Z,21.51
2022-10-30T14:09:39.501Z,21.49
2022-10-30T14:12:42.904Z,21.49
2022-10-30T14:15:20.637Z,21.46
2022-10-30T14:18:11.749Z,21.47
2022-10-30T14:20:49.515Z,21.42
2022-10-30T14:23:35.644Z,21.39
2022-10-30T14:26:02.016Z,21.35
2022-10-30T14:28:29.754Z,21.33
2022-10-30T14:31:35.796Z,21.30
2022-10-30T14:34:02.277Z,21.26
2022-10-30T14:36:37.861Z,21.23
2022-10-30T14:39:13.241Z,21.19
2022-10-30T14:41:59.429Z,21.16
2022-10-30T14:45:06.822Z,21.12
2022-10-30T14:47:58.041Z,21.08
2022-10-30T14:50:27.403Z,21.04
2022-10-30T14:53:12.111Z,21.00
2022-10-30T14:56:13.329Z,20.95
2022-10-30T14:58:39.960Z,20.94
2022-10-30T15:01:09.394Z,20.90
2022-10-30T15:03:41.827Z,20.87
2022-10-30T15:06:29.723Z,20.81
2022-10-30T15:09:08.338Z,20.78
2022-10-30T15:11:55.570Z,20.72
2022-10-30T15:14:40.637Z,20.69
2022-10-30T15:17:39.787Z,20.65
2022-10-30T15:20:12.413Z,20.60
2022-10-30T15:22:38.988Z,20.55
2022-10-30T15:25:06.440Z,20.48
2022-10-30T15:27:32.959Z,20.41
2022-10-30T15:30:01.444Z,20.36
2022-10-30T15:32:27.900Z,20.31
2022-10-30T15:35:00.057Z,20.26
2022-10-30T15:37:27.111Z,20.21
2022-10-30T15:40:12.552Z,20.15
2022-10-30T15:42:39.215Z,20.08
2022-10-30T15:45:06.448Z,19.99
2022-10-30T15:47:33.147Z,19.92
2022-10-30T15:50:00.163Z,19.85
2022-10-30T15:52:28.232Z,19.75
2022-10-30T15:55:00.464Z,19.68
2022-10-30T15:57:57.396Z,19.59
2022-10-30T16:00:20.847Z,19.51
2022-10-30T16:02:49.460Z,19.42
2022-10-30T16:05:22.961Z,19.34
2022-10-30T16:07:49.392Z,19.27
2022-10-30T16:10:17.597Z,19.19
2022-10-30T16:12:44.545Z,19.12
2022-10-30T16:15:30.847Z,19.05
2022-10-30T16:18:04.830Z,18.96
2022-10-30T16:20:31.461Z,18.89
2022-10-30T16:22:59.525Z,18.82
2022-10-30T16:25:26.028Z,18.77
2022-10-30T16:27:52.479Z,18.71
2022-10-30T16:30:18.944Z,18.64
2022-10-30T16:32:52.353Z,18.58
2022-10-30T16:35:19.557Z,18.52
2022-10-30T16:37:46.516Z,18.49
2022-10-30T16:40:12.871Z,18.49
2022-10-30T16:42:39.840Z,18.51
2022-10-30T16:45:12.265Z,18.49
2022-10-30T16:47:39.763Z,18.45
2022-10-30T16:50:07.344Z,18.38
2022-10-30T16:52:35.513Z,18.31
2022-10-30T16:55:04.936Z,18.22
2022-10-30T16:57:33.169Z,18.15
2022-10-30T17:00:00.841Z,18.08
2022-10-30T17:02:30.199Z,18.00
2022-10-30T17:05:11.424Z,17.93
2022-10-30T17:07:38.624Z,17.85
2022-10-30T17:10:35.336Z,17.78
2022-10-30T17:13:36.839Z,17.70
2022-10-30T17:16:12.501Z,17.64
2022-10-30T17:18:38.896Z,17.59
2022-10-30T17:21:05.299Z,17.54
2022-10-30T17:23:31.763Z,17.48
2022-10-30T17:25:58.304Z,17.43
2022-10-30T17:28:27.261Z,17.39
2022-10-30T17:30:53.739Z,17.33
2022-10-30T17:33:29.368Z,17.31
2022-10-30T17:35:55.917Z,17.26
2022-10-30T17:38:22.396Z,17.21
2022-10-30T17:40:48.966Z,17.14
2022-10-30T17:43:15.451Z,17.08
2022-10-30T17:45:42.902Z,17.04
2022-10-30T17:48:17.262Z,16.99
2022-10-30T17:50:44.260Z,16.94
2022-10-30T17:53:21.862Z,16.92
2022-10-30T17:56:04.143Z,16.90
2022-10-30T17:58:30.955Z,16.83
2022-10-30T18:00:58.517Z,16.79
2022-10-30T18:03:25.055Z,16.73
2022-10-30T18:05:52.135Z,16.68
2022-10-30T18:08:18.541Z,16.64
2022-10-30T18:10:45.051Z,16.58
2022-10-30T18:13:15.471Z,16.53
2022-10-30T18:15:44.467Z,16.48
2022-10-30T18:18:11.058Z,16.44
2022-10-30T18:20:37.554Z,16.40
2022-10-30T18:23:04.781Z,16.36
2022-10-30T18:25:33.582Z,16.32
2022-10-30T18:28:00.009Z,16.28
2022-10-30T18:30:29.000Z,16.25
2022-10-30T18:32:56.224Z,16.20
2022-10-30T18:35:29.614Z,16.16
2022-10-30T18:37:56.826Z,16.12
2022-10-30T18:40:23.605Z,16.09
2022-10-30T18:42:50.017Z,16.04
2022-10-30T18:45:21.463Z,16.00
2022-10-30T18:47:48.652Z,15.96
2022-10-30T18:50:16.301Z,15.90
2022-10-30T18:52:42.900Z,15.84
2022-10-30T18:55:21.634Z,15.81
2022-10-30T18:58:02.425Z,15.78
2022-10-30T19:00:39.816Z,15.75
2022-10-30T19:03:17.777Z,15.73
2022-10-30T19:05:50.809Z,15.72
2022-10-30T19:08:17.259Z,15.69
2022-10-30T19:10:45.920Z,15.67
2022-10-30T19:13:17.702Z,15.62
2022-10-30T19:15:47.044Z,15.58
2022-10-30T19:18:14.020Z,15.56
2022-10-30T19:21:03.168Z,15.53
2022-10-30T19:23:27.331Z,15.49
2022-10-30T19:25:53.862Z,15.46
2022-10-30T19:28:21.190Z,15.45
2022-10-30T19:30:52.949Z,15.41
2022-10-30T19:33:21.232Z,15.38
2022-10-30T19:36:00.976Z,15.35
2022-10-30T19:38:28.239Z,15.32
2022-10-30T19:40:54.679Z,15.28
2022-10-30T19:43:21.085Z,15.25
2022-10-30T19:45:51.266Z,15.20
2022-10-30T19:48:34.392Z,15.17
2022-10-30T19:51:09.236Z,15.11
2022-10-30T19:53:35.667Z,15.08
2022-10-30T19:56:02.099Z,15.06
2022-10-30T19:58:28.519Z,15.03
2022-10-30T20:00:55.495Z,15.02
2022-10-30T20:03:22.027Z,15.01
2022-10-30T20:05:50.396Z,14.99
2022-10-30T20:08:20.100Z,15.00
2022-10-30T20:10:51.871Z,14.98
2022-10-30T20:13:19.096Z,14.94
2022-10-30T20:15:45.517Z,14.93
2022-10-30T20:18:23.345Z,14.90
2022-10-30T20:20:51.586Z,14.85
2022-10-30T20:23:18.370Z,14.82
2022-10-30T20:25:45.047Z,14.79
2022-10-30T20:28:38.565Z,14.75
2022-10-30T20:31:06.210Z,14.72
2022-10-30T20:33:32.994Z,14.71
2022-10-30T20:35:59.448Z,14.68
2022-10-30T20:38:29.323Z,14.67
2022-10-30T20:40:56.650Z,14.68
2022-10-30T20:43:33.156Z,14.68
2022-10-30T20:46:00.291Z,14.68
2022-10-30T20:48:27.871Z,14.71
2022-10-30T20:50:55.984Z,14.73
2022-10-30T20:53:22.386Z,14.74
2022-10-30T20:55:48.817Z,14.76
2022-10-30T20:58:15.490Z,14.76
2022-10-30T21:00:42.167Z,14.75
2022-10-30T21:03:10.463Z,14.75
2022-10-30T21:05:45.451Z,14.76
2022-10-30T21:08:13.768Z,14.76
2022-10-30T21:10:40.490Z,14.75
2022-10-30T21:13:09.023Z,14.74
2022-10-30T21:15:40.873Z,14.72
2022-10-30T21:18:07.701Z,14.73
2022-10-30T21:20:34.273Z,14.72
2022-10-30T21:23:00.702Z,14.72
2022-10-30T21:25:27.160Z,14.73
2022-10-30T21:27:56.514Z,14.73
2022-10-30T21:30:22.963Z,14.74
2022-10-30T21:32:49.391Z,14.74
2022-10-30T21:35:15.802Z,14.75
2022-10-30T21:37:42.225Z,14.72
2022-10-30T21:40:09.308Z,14.71
2022-10-30T21:42:35.708Z,14.69
2022-10-30T21:45:02.202Z,14.66
2022-10-30T21:47:28.609Z,14.65
2022-10-30T21:49:55.041Z,14.62
2022-10-30T21:52:21.499Z,14.61
2022-10-30T21:54:47.911Z,14.58
2022-10-30T21:57:14.357Z,14.55
2022-10-30T21:59:40.787Z,14.54
2022-10-30T22:02:07.287Z,14.54
2022-10-30T22:04:34.679Z,14.54
2022-10-30T22:07:01.092Z,14.54
2022-10-30T22:09:27.517Z,14.55
2022-10-30T22:11:53.911Z,14.55
2022-10-30T22:14:20.338Z,14.52
2022-10-30T22:16:48.168Z,14.52
2022-10-30T22:19:14.586Z,14.50
2022-10-30T22:21:41.001Z,14.48
2022-10-30T22:24:07.721Z,14.48
2022-10-30T22:26:34.168Z,14.44
2022-10-30T22:29:00.863Z,14.43
2022-10-30T22:31:29.776Z,14.43
2022-10-30T22:33:56.409Z,14.42
2022-10-30T22:36:25.413Z,14.40
2022-10-30T22:38:58.521Z,14.41
2022-10-30T22:41:25.871Z,14.39
2022-10-30T22:43:55.168Z,14.41
2022-10-30T22:46:23.735Z,14.44
2022-10-30T22:48:50.604Z,14.47
2022-10-30T22:51:18.047Z,14.49
2022-10-30T22:53:46.336Z,14.53
2022-10-30T22:56:21.655Z,14.56
2022-10-30T22:58:49.463Z,14.60
2022-10-30T23:01:25.860Z,14.61
2022-10-30T23:03:54.635Z,14.63
2022-10-30T23:06:21.079Z,14.65
2022-10-30T23:08:47.823Z,14.66
2022-10-30T23:11:14.646Z,14.68
2022-10-30T23:13:41.081Z,14.70
2022-10-30T23:16:09.048Z,14.71
2022-10-30T23:18:35.792Z,14.71
2022-10-30T23:21:05.499Z,14.72
2022-10-30T23:23:35.881Z,14.70
2022-10-30T23:26:10.923Z,14.69
2022-10-30T23:28:37.367Z,14.66
2022-10-30T23:31:10.497Z,14.63
2022-10-30T23:33:36.943Z,14.62
2022-10-30T23:36:04.595Z,14.61
2022-10-30T23:38:31.025Z,14.58
2022-10-30T23:40:57.447Z,14.57
2022-10-30T23:43:23.956Z,14.55
2022-10-30T23:45:53.313Z,14.56
2022-10-30T23:48:19.959Z,14.57
2022-10-30T23:50:46.365Z,14.58
2022-10-30T23:53:12.860Z,14.62
2022-10-30T23:55:39.289Z,14.63
2022-10-30T23:58:05.784Z,14.64
